ASH weather

Boire Field
Nashua, New Hampshire, United States

Public forecast

Using degrees Fahrenheit for public forecast. Weather courtesy of forecast.io.

METAR (pilot weather report)

Retrieved 2019/05/21 07:56 UTC (6 minutes ago):

KASH 210756Z AUTO 28009G15KT 10SM CLR 14/06 A2972 RMK AO2 SLP072 T01390061

TAF (pilot weather forecast)

Closest forecast is Manchester-Boston Regional Airport, 9.7 nm (18.0 km) NNE. Retrieved 2019/05/21 06:21 UTC (2 hours ago):

TAF KMHT 210520Z 2106/2206 30012G20KT P6SM BKN070 OVC080 FM211200 30019G26KT P6SM SCT250 FM211700 31023G31KT P6SM SCT100